createdAt,value
2018-08-03T04:44:12.716Z,69.20
2018-08-03T04:49:09.867Z,69.60
2018-08-03T04:54:11.011Z,69.70
2018-08-03T05:05:41.909Z,67.40
2018-08-03T05:15:43.599Z,67.00
2018-08-03T05:22:46.373Z,67.00
2018-08-03T05:27:40.392Z,66.20
2018-08-03T05:31:30.571Z,65.80
2018-08-03T05:34:53.015Z,65.50
2018-08-03T05:38:11.024Z,65.10
2018-08-03T05:41:09.670Z,64.40
2018-08-03T05:43:58.853Z,64.50
2018-08-03T05:46:39.488Z,63.80
2018-08-03T05:49:14.536Z,63.60
2018-08-03T05:51:49.716Z,63.70
2018-08-03T05:54:29.005Z,64.10
2018-08-03T05:57:06.796Z,63.80
2018-08-03T05:59:31.392Z,63.20
2018-08-03T06:01:57.068Z,63.10
2018-08-03T06:04:27.760Z,62.80
2018-08-03T06:06:45.208Z,63.10
2018-08-03T06:11:40.760Z,63.70
2018-08-03T06:16:36.514Z,62.70
2018-08-03T06:21:32.189Z,61.60
2018-08-03T06:26:27.792Z,59.20
2018-08-03T06:31:23.569Z,58.50
2018-08-03T06:36:19.376Z,58.70
2018-08-03T06:41:16.176Z,57.90
2018-08-03T06:46:12.691Z,57.90
2018-08-03T06:51:05.248Z,56.70
2018-08-03T06:55:58.864Z,56.20
2018-08-03T07:00:53.324Z,55.30
2018-08-03T07:05:46.384Z,54.60
2018-08-03T07:10:40.276Z,55.00
2018-08-03T07:15:35.248Z,54.00
2018-08-03T07:20:30.005Z,52.90
2018-08-03T07:25:23.384Z,52.40
2018-08-03T07:30:16.952Z,51.00
2018-08-03T07:35:10.413Z,51.40
2018-08-03T07:40:05.060Z,50.00
2018-08-03T07:44:58.930Z,49.10
2018-08-03T07:49:52.608Z,48.90
2018-08-03T07:54:46.116Z,47.50
2018-08-03T07:59:39.789Z,46.90
2018-08-03T08:04:33.089Z,46.50
2018-08-03T08:09:26.725Z,45.90
2018-08-03T08:14:20.361Z,44.90
2018-08-03T08:19:14.096Z,44.20
2018-08-03T08:24:07.648Z,44.70
2018-08-03T08:29:02.659Z,43.40
2018-08-03T08:33:56.292Z,43.80
2018-08-03T08:38:49.774Z,41.80
2018-08-03T08:43:44.082Z,41.00
2018-08-03T08:48:38.561Z,39.30
2018-08-03T08:53:31.954Z,39.40
2018-08-03T08:58:27.180Z,39.10
2018-08-03T09:03:21.454Z,39.30
2018-08-03T09:08:15.973Z,38.00
2018-08-03T09:13:09.813Z,38.20
2018-08-03T09:18:03.716Z,36.00
2018-08-03T09:22:57.632Z,36.20
2018-08-03T09:27:51.471Z,35.50
2018-08-03T09:32:45.222Z,35.00
2018-08-03T09:37:42.085Z,34.30
2018-08-03T09:42:37.262Z,34.00
2018-08-03T09:47:32.081Z,33.00
2018-08-03T09:52:27.005Z,33.00
2018-08-03T09:57:19.436Z,31.80
2018-08-03T10:02:15.171Z,31.70
2018-08-03T10:07:10.684Z,31.10
2018-08-03T10:12:05.921Z,31.70
2018-08-03T10:17:05.505Z,29.80
2018-08-03T10:22:00.034Z,29.90
2018-08-03T10:26:57.322Z,30.00
2018-08-03T10:31:53.171Z,30.20
2018-08-03T10:36:48.126Z,31.10
2018-08-03T10:41:48.848Z,30.60
2018-08-03T10:46:43.897Z,31.40
2018-08-03T10:51:39.081Z,32.40
2018-08-03T10:56:33.145Z,31.10
2018-08-03T11:01:30.679Z,30.10
2018-08-03T11:06:26.600Z,28.50
2018-08-03T11:11:22.484Z,28.30
2018-08-03T11:16:21.226Z,28.40
2018-08-03T11:21:33.107Z,28.50
2018-08-03T11:26:29.149Z,27.60
2018-08-03T11:31:26.015Z,27.10
2018-08-03T11:36:28.093Z,27.60
2018-08-03T11:41:23.926Z,26.70
2018-08-03T11:46:22.991Z,27.30
2018-08-03T11:51:25.686Z,26.60
2018-08-03T12:01:45.281Z,27.00
2018-08-03T12:06:42.085Z,26.30
2018-08-03T12:11:38.358Z,26.50
2018-08-03T12:16:38.099Z,26.10
2018-08-03T12:21:33.843Z,26.00
2018-08-03T12:26:29.991Z,25.60
2018-08-03T12:31:40.054Z,24.70
2018-08-03T12:36:46.840Z,24.30
2018-08-03T12:41:40.807Z,23.50
2018-08-03T12:46:34.168Z,24.70
2018-08-03T12:51:44.420Z,25.90
2018-08-03T12:56:40.249Z,24.90
2018-08-03T13:01:46.298Z,24.90
2018-08-03T13:06:44.159Z,25.10
2018-08-03T14:39:20.531Z,24.10
2018-08-03T14:44:15.561Z,25.80
2018-08-03T14:49:10.177Z,25.30
2018-08-03T14:54:10.582Z,24.80
2018-08-03T14:59:13.747Z,24.20
2018-08-03T15:04:09.149Z,24.70
2018-08-03T15:09:10.612Z,23.50
2018-08-03T15:14:05.969Z,24.40
2018-08-03T15:24:24.944Z,25.50
2018-08-03T15:29:20.482Z,25.40
2018-08-03T15:34:23.201Z,25.20
2018-08-03T15:39:26.663Z,25.60
2018-08-03T15:44:20.365Z,25.90
2018-08-03T15:49:15.610Z,26.70
2018-08-03T15:54:11.048Z,26.90
2018-08-03T15:59:05.810Z,27.30
2018-08-03T16:04:00.794Z,27.80
2018-08-03T16:09:06.097Z,27.10
2018-08-03T16:14:02.553Z,27.60
